sensor_id;sensor_type;location;lat;lon;timestamp;pressure;altitude;pressure_sealevel;temperature;humidity
5126;BME280;63008;53.112;8.896;2022-09-02T00:01:46;102133.94;;;13.46;67.21
5126;BME280;63008;53.112;8.896;2022-09-02T00:03:47;102127.28;;;13.47;67.16
5126;BME280;63008;53.112;8.896;2022-09-02T00:05:47;102127.28;;;13.38;67.49
5126;BME280;63008;53.112;8.896;2022-09-02T00:07:48;102128.91;;;13.39;67.63
5126;BME280;63008;53.112;8.896;2022-09-02T00:09:49;102129.19;;;13.38;67.56
5126;BME280;63008;53.112;8.896;2022-09-02T00:11:51;102127.44;;;13.42;67.53
5126;BME280;63008;53.112;8.896;2022-09-02T00:13:53;102124.16;;;13.31;67.70
5126;BME280;63008;53.112;8.896;2022-09-02T00:15:54;102124.47;;;13.30;67.90
5126;BME280;63008;53.112;8.896;2022-09-02T00:17:56;102122.66;;;13.25;68.13
5126;BME280;63008;53.112;8.896;2022-09-02T00:19:57;102123.47;;;13.26;68.13
5126;BME280;63008;53.112;8.896;2022-09-02T00:21:58;102123.47;;;13.26;68.41
5126;BME280;63008;53.112;8.896;2022-09-02T00:24:01;102122.47;;;13.22;68.16
5126;BME280;63008;53.112;8.896;2022-09-02T00:26:02;102120.38;;;13.19;68.34
5126;BME280;63008;53.112;8.896;2022-09-02T00:28:04;102120.03;;;13.20;68.55
5126;BME280;63008;53.112;8.896;2022-09-02T00:30:05;102127.06;;;13.26;68.35
5126;BME280;63008;53.112;8.896;2022-09-02T00:32:06;102130.00;;;13.30;68.25
5126;BME280;63008;53.112;8.896;2022-09-02T00:34:08;102133.69;;;13.25;68.39
5126;BME280;63008;53.112;8.896;2022-09-02T00:36:11;102128.00;;;13.22;68.63
5126;BME280;63008;53.112;8.896;2022-09-02T00:38:12;102129.38;;;13.11;68.81
5126;BME280;63008;53.112;8.896;2022-09-02T00:40:13;102123.09;;;13.10;68.97
5126;BME280;63008;53.112;8.896;2022-09-02T00:42:14;102127.13;;;13.04;69.32
5126;BME280;63008;53.112;8.896;2022-09-02T00:44:17;102131.81;;;13.04;69.32
5126;BME280;63008;53.112;8.896;2022-09-02T00:46:20;102128.09;;;13.08;69.24
5126;BME280;63008;53.112;8.896;2022-09-02T00:48:21;102117.59;;;13.19;69.05
5126;BME280;63008;53.112;8.896;2022-09-02T00:50:23;102111.13;;;13.15;69.04
5126;BME280;63008;53.112;8.896;2022-09-02T00:52:30;102131.34;;;13.10;69.29
5126;BME280;63008;53.112;8.896;2022-09-02T00:54:35;102118.56;;;13.14;69.25
5126;BME280;63008;53.112;8.896;2022-09-02T00:56:39;102115.94;;;13.09;69.22
5126;BME280;63008;53.112;8.896;2022-09-02T00:58:41;102117.72;;;13.05;69.55
5126;BME280;63008;53.112;8.896;2022-09-02T01:00:44;102123.22;;;13.05;69.60
5126;BME280;63008;53.112;8.896;2022-09-02T01:02:49;102110.75;;;13.08;69.40
5126;BME280;63008;53.112;8.896;2022-09-02T01:04:51;102110.75;;;13.08;69.51
5126;BME280;63008;53.112;8.896;2022-09-02T01:06:54;102115.56;;;13.02;69.71
5126;BME280;63008;53.112;8.896;2022-09-02T01:09:02;102111.88;;;13.07;69.54
5126;BME280;63008;53.112;8.896;2022-09-02T01:11:04;102116.69;;;13.01;69.68
5126;BME280;63008;53.112;8.896;2022-09-02T01:13:09;102112.56;;;12.90;70.07
5126;BME280;63008;53.112;8.896;2022-09-02T01:15:11;102108.19;;;12.89;70.15
5126;BME280;63008;53.112;8.896;2022-09-02T01:17:15;102106.88;;;12.87;70.29
5126;BME280;63008;53.112;8.896;2022-09-02T01:19:29;102108.19;;;12.89;70.14
5126;BME280;63008;53.112;8.896;2022-09-02T01:21:31;102106.56;;;12.88;70.17
5126;BME280;63008;53.112;8.896;2022-09-02T01:23:31;102104.75;;;12.84;70.45
5126;BME280;63008;53.112;8.896;2022-09-02T01:25:34;102101.50;;;12.82;70.46
5126;BME280;63008;53.112;8.896;2022-09-02T01:27:35;102099.50;;;12.74;70.79
5126;BME280;63008;53.112;8.896;2022-09-02T01:29:36;102111.47;;;12.70;70.92
5126;BME280;63008;53.112;8.896;2022-09-02T01:31:37;102102.59;;;12.73;70.94
5126;BME280;63008;53.112;8.896;2022-09-02T01:33:37;102104.50;;;12.72;70.73
5126;BME280;63008;53.112;8.896;2022-09-02T01:35:38;102103.50;;;12.68;70.87
5126;BME280;63008;53.112;8.896;2022-09-02T01:37:39;102093.81;;;12.71;70.88
5126;BME280;63008;53.112;8.896;2022-09-02T01:39:39;102101.44;;;12.73;70.99
5126;BME280;63008;53.112;8.896;2022-09-02T01:41:40;102099.13;;;12.67;71.11
5126;BME280;63008;53.112;8.896;2022-09-02T01:43:41;102102.19;;;12.66;71.23
5126;BME280;63008;53.112;8.896;2022-09-02T01:45:44;102096.19;;;12.64;71.29
5126;BME280;63008;53.112;8.896;2022-09-02T01:47:45;102093.44;;;12.64;71.23
5126;BME280;63008;53.112;8.896;2022-09-02T01:49:46;102091.13;;;12.57;71.49
5126;BME280;63008;53.112;8.896;2022-09-02T01:51:48;102085.81;;;12.61;71.31
5126;BME280;63008;53.112;8.896;2022-09-02T01:53:49;102077.47;;;12.52;71.51
5126;BME280;63008;53.112;8.896;2022-09-02T01:55:50;102082.31;;;12.47;71.93
5126;BME280;63008;53.112;8.896;2022-09-02T01:57:51;102087.31;;;12.45;72.01
5126;BME280;63008;53.112;8.896;2022-09-02T01:59:52;102085.50;;;12.40;72.16
5126;BME280;63008;53.112;8.896;2022-09-02T02:01:53;102081.56;;;12.33;72.43
5126;BME280;63008;53.112;8.896;2022-09-02T02:03:53;102083.06;;;12.39;72.33
5126;BME280;63008;53.112;8.896;2022-09-02T02:05:54;102077.06;;;12.37;72.52
5126;BME280;63008;53.112;8.896;2022-09-02T02:07:55;102084.00;;;12.34;72.62
5126;BME280;63008;53.112;8.896;2022-09-02T02:09:55;102089.69;;;12.38;72.76
5126;BME280;63008;53.112;8.896;2022-09-02T02:11:56;102081.06;;;12.31;72.64
5126;BME280;63008;53.112;8.896;2022-09-02T02:13:57;102073.81;;;12.35;72.69
5126;BME280;63008;53.112;8.896;2022-09-02T02:15:57;102080.94;;;12.36;72.61
5126;BME280;63008;53.112;8.896;2022-09-02T02:17:58;102079.44;;;12.30;72.92
5126;BME280;63008;53.112;8.896;2022-09-02T02:19:58;102079.91;;;12.32;72.83
5126;BME280;63008;53.112;8.896;2022-09-02T02:21:59;102077.50;;;12.30;72.93
5126;BME280;63008;53.112;8.896;2022-09-02T02:24:00;102080.94;;;12.36;72.88
5126;BME280;63008;53.112;8.896;2022-09-02T02:26:01;102080.31;;;12.39;72.66
5126;BME280;63008;53.112;8.896;2022-09-02T02:28:02;102072.63;;;12.27;72.98
5126;BME280;63008;53.112;8.896;2022-09-02T02:30:06;102073.41;;;12.28;73.07
5126;BME280;63008;53.112;8.896;2022-09-02T02:32:08;102069.88;;;12.27;73.12
5126;BME280;63008;53.112;8.896;2022-09-02T02:34:09;102073.34;;;12.19;73.40
5126;BME280;63008;53.112;8.896;2022-09-02T02:36:10;102063.81;;;12.17;73.63
5126;BME280;63008;53.112;8.896;2022-09-02T02:38:11;102062.47;;;12.14;73.69
5126;BME280;63008;53.112;8.896;2022-09-02T02:40:11;102070.22;;;12.12;73.62
5126;BME280;63008;53.112;8.896;2022-09-02T02:42:12;102061.66;;;12.14;73.68
5126;BME280;63008;53.112;8.896;2022-09-02T02:44:13;102063.41;;;12.10;73.82
5126;BME280;63008;53.112;8.896;2022-09-02T02:46:14;102059.44;;;12.02;73.95
5126;BME280;63008;53.112;8.896;2022-09-02T02:48:15;102057.81;;;12.01;74.16
5126;BME280;63008;53.112;8.896;2022-09-02T02:50:17;102059.38;;;11.94;74.52
5126;BME280;63008;53.112;8.896;2022-09-02T02:52:19;102054.38;;;11.96;74.23
5126;BME280;63008;53.112;8.896;2022-09-02T02:54:20;102057.66;;;11.98;74.22
5126;BME280;63008;53.112;8.896;2022-09-02T02:56:21;102052.88;;;11.90;74.47
5126;BME280;63008;53.112;8.896;2022-09-02T02:58:22;102052.09;;;11.89;74.56
5126;BME280;63008;53.112;8.896;2022-09-02T03:00:25;102054.69;;;11.94;74.38
5126;BME280;63008;53.112;8.896;2022-09-02T03:02:29;102049.94;;;11.86;74.76
5126;BME280;63008;53.112;8.896;2022-09-02T03:04:33;102045.59;;;11.72;75.22
5126;BME280;63008;53.112;8.896;2022-09-02T03:06:34;102048.72;;;11.79;75.14
5126;BME280;63008;53.112;8.896;2022-09-02T03:08:35;102047.44;;;11.76;75.12
5126;BME280;63008;53.112;8.896;2022-09-02T03:10:38;102047.22;;;11.73;75.43
5126;BME280;63008;53.112;8.896;2022-09-02T03:12:42;102045.97;;;11.79;75.34
5126;BME280;63008;53.112;8.896;2022-09-02T03:14:50;102045.31;;;11.73;75.46
5126;BME280;63008;53.112;8.896;2022-09-02T03:16:51;102045.31;;;11.73;75.53
5126;BME280;63008;53.112;8.896;2022-09-02T03:18:52;102045.88;;;11.70;75.77
5126;BME280;63008;53.112;8.896;2022-09-02T03:20:53;102043.97;;;11.71;75.55
5126;BME280;63008;53.112;8.896;2022-09-02T03:22:56;102049.75;;;11.69;75.76
5126;BME280;63008;53.112;8.896;2022-09-02T03:24:56;102048.97;;;11.69;75.50
5126;BME280;63008;53.112;8.896;2022-09-02T03:26:57;102036.97;;;11.65;76.00
5126;BME280;63008;53.112;8.896;2022-09-02T03:28:58;102039.22;;;11.63;76.06
5126;BME280;63008;53.112;8.896;2022-09-02T03:30:58;102043.06;;;11.62;76.09
5126;BME280;63008;53.112;8.896;2022-09-02T03:33:00;102039.81;;;11.60;76.23
5126;BME280;63008;53.112;8.896;2022-09-02T03:35:03;102034.53;;;11.50;76.56
5126;BME280;63008;53.112;8.896;2022-09-02T03:37:04;102034.53;;;11.50;76.50
5126;BME280;63008;53.112;8.896;2022-09-02T03:39:08;102043.81;;;11.40;76.86
5126;BME280;63008;53.112;8.896;2022-09-02T03:41:09;102039.50;;;11.34;77.03
5126;BME280;63008;53.112;8.896;2022-09-02T03:43:10;102043.50;;;11.28;77.29
5126;BME280;63008;53.112;8.896;2022-09-02T03:45:11;102040.13;;;11.31;77.20
5126;BME280;63008;53.112;8.896;2022-09-02T03:47:14;102040.13;;;11.31;77.35
5126;BME280;63008;53.112;8.896;2022-09-02T03:49:16;102044.41;;;11.37;77.10
5126;BME280;63008;53.112;8.896;2022-09-02T03:51:19;102041.13;;;11.35;77.00
5126;BME280;63008;53.112;8.896;2022-09-02T03:53:19;102043.81;;;11.40;77.04
5126;BME280;63008;53.112;8.896;2022-09-02T03:55:21;102036.47;;;11.36;77.00
5126;BME280;63008;53.112;8.896;2022-09-02T03:57:21;102032.00;;;11.26;77.48
5126;BME280;63008;53.112;8.896;2022-09-02T03:59:25;102031.81;;;11.36;77.38
5126;BME280;63008;53.112;8.896;2022-09-02T04:01:26;102031.19;;;11.39;77.05
5126;BME280;63008;53.112;8.896;2022-09-02T04:03:27;102036.75;;;11.34;77.01
5126;BME280;63008;53.112;8.896;2022-09-02T04:05:28;102039.34;;;11.31;77.33
5126;BME280;63008;53.112;8.896;2022-09-02T04:07:28;102040.03;;;11.23;77.61
5126;BME280;63008;53.112;8.896;2022-09-02T04:09:29;102033.75;;;11.22;77.59
5126;BME280;63008;53.112;8.896;2022-09-02T04:11:30;102033.31;;;11.15;77.83
5126;BME280;63008;53.112;8.896;2022-09-02T04:13:30;102033.53;;;11.19;77.71
5126;BME280;63008;53.112;8.896;2022-09-02T04:15:31;102032.03;;;11.13;77.84
5126;BME280;63008;53.112;8.896;2022-09-02T04:17:35;102033.72;;;11.09;78.20
5126;BME280;63008;53.112;8.896;2022-09-02T04:19:35;102035.06;;;11.11;78.16
5126;BME280;63008;53.112;8.896;2022-09-02T04:21:40;102028.84;;;11.06;78.32
5126;BME280;63008;53.112;8.896;2022-09-02T04:23:40;102031.59;;;11.06;78.37
5126;BME280;63008;53.112;8.896;2022-09-02T04:25:43;102035.78;;;11.03;78.47
5126;BME280;63008;53.112;8.896;2022-09-02T04:27:43;102030.91;;;11.00;78.68
5126;BME280;63008;53.112;8.896;2022-09-02T04:29:44;102032.94;;;10.95;78.79
5126;BME280;63008;53.112;8.896;2022-09-02T04:31:44;102028.06;;;10.92;78.81
5126;BME280;63008;53.112;8.896;2022-09-02T04:33:45;102028.75;;;10.97;78.53
5126;BME280;63008;53.112;8.896;2022-09-02T04:35:46;102029.34;;;10.94;78.67
5126;BME280;63008;53.112;8.896;2022-09-02T04:37:48;102031.88;;;10.91;78.73
5126;BME280;63008;53.112;8.896;2022-09-02T04:39:49;102031.19;;;10.86;79.14
5126;BME280;63008;53.112;8.896;2022-09-02T04:41:49;102026.09;;;10.79;79.19
5126;BME280;63008;53.112;8.896;2022-09-02T04:43:52;102024.25;;;10.75;79.66
5126;BME280;63008;53.112;8.896;2022-09-02T04:45:53;102033.50;;;10.79;79.50
5126;BME280;63008;53.112;8.896;2022-09-02T04:47:55;102032.09;;;10.81;79.28
5126;BME280;63008;53.112;8.896;2022-09-02T04:49:55;102036.38;;;10.87;79.24
5126;BME280;63008;53.112;8.896;2022-09-02T04:51:57;102033.00;;;10.90;79.13
5126;BME280;63008;53.112;8.896;2022-09-02T04:53:57;102034.75;;;10.86;79.20
5126;BME280;63008;53.112;8.896;2022-09-02T04:55:58;102039.94;;;10.88;79.23
5126;BME280;63008;53.112;8.896;2022-09-02T04:57:59;102034.56;;;10.96;79.20
5126;BME280;63008;53.112;8.896;2022-09-02T04:59:59;102039.66;;;11.02;78.71
5126;BME280;63008;53.112;8.896;2022-09-02T05:02:02;102034.06;;;10.94;79.21
5126;BME280;63008;53.112;8.896;2022-09-02T05:04:04;102032.81;;;11.00;79.13
5126;BME280;63008;53.112;8.896;2022-09-02T05:06:10;102035.88;;;11.12;78.67
5126;BME280;63008;53.112;8.896;2022-09-02T05:08:11;102035.38;;;11.10;78.82
5126;BME280;63008;53.112;8.896;2022-09-02T05:10:12;102035.16;;;11.06;78.81
5126;BME280;63008;53.112;8.896;2022-09-02T05:12:14;102034.25;;;11.11;78.98
5126;BME280;63008;53.112;8.896;2022-09-02T05:14:15;102030.91;;;11.14;78.77
5126;BME280;63008;53.112;8.896;2022-09-02T05:16:21;102036.91;;;11.16;78.69
5126;BME280;63008;53.112;8.896;2022-09-02T05:18:21;102033.81;;;11.17;78.91
5126;BME280;63008;53.112;8.896;2022-09-02T05:20:22;102037.50;;;11.13;79.10
5126;BME280;63008;53.112;8.896;2022-09-02T05:22:23;102029.03;;;11.23;78.82
5126;BME280;63008;53.112;8.896;2022-09-02T05:24:28;102026.22;;;11.28;78.70
5126;BME280;63008;53.112;8.896;2022-09-02T05:26:29;102026.22;;;11.28;78.72
5126;BME280;63008;53.112;8.896;2022-09-02T05:28:29;102030.88;;;11.27;78.74
5126;BME280;63008;53.112;8.896;2022-09-02T05:30:30;102026.22;;;11.28;78.85
5126;BME280;63008;53.112;8.896;2022-09-02T05:32:31;102031.81;;;11.36;78.52
5126;BME280;63008;53.112;8.896;2022-09-02T05:34:32;102027.31;;;11.40;78.46
5126;BME280;63008;53.112;8.896;2022-09-02T05:36:33;102026.19;;;11.41;78.45
5126;BME280;63008;53.112;8.896;2022-09-02T05:38:34;102029.63;;;11.47;78.35
5126;BME280;63008;53.112;8.896;2022-09-02T05:40:37;102028.53;;;11.48;78.30
5126;BME280;63008;53.112;8.896;2022-09-02T05:42:38;102028.09;;;11.54;78.35
5126;BME280;63008;53.112;8.896;2022-09-02T05:44:39;102034.41;;;11.55;78.20
5126;BME280;63008;53.112;8.896;2022-09-02T05:46:41;102036.75;;;11.61;77.96
5126;BME280;63008;53.112;8.896;2022-09-02T05:48:43;102038.88;;;11.64;77.88
5126;BME280;63008;53.112;8.896;2022-09-02T05:51:04;102034.88;;;11.70;77.64
5126;BME280;63008;53.112;8.896;2022-09-02T05:53:05;102035.09;;;11.74;77.64
5126;BME280;63008;53.112;8.896;2022-09-02T05:55:05;102038.06;;;11.77;77.51
5126;BME280;63008;53.112;8.896;2022-09-02T05:57:10;102027.41;;;11.84;77.22
5126;BME280;63008;53.112;8.896;2022-09-02T05:59:12;102033.25;;;11.83;77.24
5126;BME280;63008;53.112;8.896;2022-09-02T06:01:14;102027.63;;;11.88;77.43
5126;BME280;63008;53.112;8.896;2022-09-02T06:03:16;102035.53;;;12.03;76.98
5126;BME280;63008;53.112;8.896;2022-09-02T06:05:18;102030.50;;;12.05;76.91
5126;BME280;63008;53.112;8.896;2022-09-02T06:07:21;102034.47;;;12.12;76.67
5126;BME280;63008;53.112;8.896;2022-09-02T06:09:23;102033.53;;;12.17;76.77
5126;BME280;63008;53.112;8.896;2022-09-02T06:11:25;102024.50;;;12.25;76.60
5126;BME280;63008;53.112;8.896;2022-09-02T06:13:30;102024.69;;;12.28;76.33
5126;BME280;63008;53.112;8.896;2022-09-02T06:15:31;102018.47;;;12.45;75.94
5126;BME280;63008;53.112;8.896;2022-09-02T06:17:31;102014.16;;;12.52;75.69
5126;BME280;63008;53.112;8.896;2022-09-02T06:19:32;102018.28;;;12.63;75.23
5126;BME280;63008;53.112;8.896;2022-09-02T06:21:34;102017.28;;;12.59;75.24
5126;BME280;63008;53.112;8.896;2022-09-02T06:23:37;102025.41;;;12.64;75.27
5126;BME280;63008;53.112;8.896;2022-09-02T06:25:39;102021.31;;;12.62;75.43
5126;BME280;63008;53.112;8.896;2022-09-02T06:27:40;102032.72;;;12.69;75.54
5126;BME280;63008;53.112;8.896;2022-09-02T06:29:41;102026.56;;;12.72;75.58
5126;BME280;63008;53.112;8.896;2022-09-02T06:31:44;102024.16;;;12.78;75.49
5126;BME280;63008;53.112;8.896;2022-09-02T06:33:46;102020.00;;;12.89;75.50
5126;BME280;63008;53.112;8.896;2022-09-02T06:35:47;102025.91;;;12.96;75.27
5126;BME280;63008;53.112;8.896;2022-09-02T06:37:48;102031.44;;;13.05;75.19
5126;BME280;63008;53.112;8.896;2022-09-02T06:39:49;102027.44;;;13.19;74.86
5126;BME280;63008;53.112;8.896;2022-09-02T06:41:49;102033.97;;;13.32;74.49
5126;BME280;63008;53.112;8.896;2022-09-02T06:43:50;102034.50;;;13.42;74.20
5126;BME280;63008;53.112;8.896;2022-09-02T06:45:51;102029.66;;;13.65;73.18
5126;BME280;63008;53.112;8.896;2022-09-02T06:47:52;102027.69;;;13.65;73.25
5126;BME280;63008;53.112;8.896;2022-09-02T06:49:52;102023.50;;;13.76;72.65
5126;BME280;63008;53.112;8.896;2022-09-02T06:51:54;102028.69;;;13.95;71.93
5126;BME280;63008;53.112;8.896;2022-09-02T06:53:56;102029.34;;;14.00;71.55
5126;BME280;63008;53.112;8.896;2022-09-02T06:55:56;102024.47;;;14.06;71.98
5126;BME280;63008;53.112;8.896;2022-09-02T06:57:57;102024.78;;;14.04;71.77
5126;BME280;63008;53.112;8.896;2022-09-02T06:59:58;102028.69;;;14.12;71.56
5126;BME280;63008;53.112;8.896;2022-09-02T07:01:59;102023.53;;;14.19;71.53
5126;BME280;63008;53.112;8.896;2022-09-02T07:03:59;102022.69;;;14.27;71.42
5126;BME280;63008;53.112;8.896;2022-09-02T07:06:18;102024.59;;;14.43;70.80
5126;BME280;63008;53.112;8.896;2022-09-02T07:08:19;102022.47;;;14.49;70.56
5126;BME280;63008;53.112;8.896;2022-09-02T07:10:19;102020.84;;;14.56;70.44
5126;BME280;63008;53.112;8.896;2022-09-02T07:12:26;102018.41;;;14.63;70.19
5126;BME280;63008;53.112;8.896;2022-09-02T07:14:40;102015.44;;;14.68;69.99
5126;BME280;63008;53.112;8.896;2022-09-02T07:16:44;102014.78;;;14.71;70.05
5126;BME280;63008;53.112;8.896;2022-09-02T07:18:45;102018.47;;;14.83;69.79
5126;BME280;63008;53.112;8.896;2022-09-02T07:20:46;102013.56;;;14.89;69.44
5126;BME280;63008;53.112;8.896;2022-09-02T07:22:47;102013.06;;;14.95;69.00
5126;BME280;63008;53.112;8.896;2022-09-02T07:24:48;102018.84;;;15.11;68.47
5126;BME280;63008;53.112;8.896;2022-09-02T07:26:49;102011.28;;;15.28;68.48
5126;BME280;63008;53.112;8.896;2022-09-02T07:28:50;102005.50;;;15.42;67.92
5126;BME280;63008;53.112;8.896;2022-09-02T07:30:51;102016.06;;;15.48;67.91
5126;BME280;63008;53.112;8.896;2022-09-02T07:32:54;102010.47;;;15.57;67.39
5126;BME280;63008;53.112;8.896;2022-09-02T07:35:04;102012.56;;;15.60;66.51
5126;BME280;63008;53.112;8.896;2022-09-02T07:37:06;102016.09;;;15.69;66.86
5126;BME280;63008;53.112;8.896;2022-09-02T07:39:09;102013.44;;;15.72;66.63
5126;BME280;63008;53.112;8.896;2022-09-02T07:41:10;102009.59;;;15.85;66.30
5126;BME280;63008;53.112;8.896;2022-09-02T07:43:12;102007.56;;;15.94;65.75
5126;BME280;63008;53.112;8.896;2022-09-02T07:45:13;102008.16;;;16.00;65.48
5126;BME280;63008;53.112;8.896;2022-09-02T07:47:14;102006.84;;;16.18;65.72
5126;BME280;63008;53.112;8.896;2022-09-02T07:49:15;102008.88;;;16.29;65.27
5126;BME280;63008;53.112;8.896;2022-09-02T07:51:18;102005.06;;;16.34;64.25
5126;BME280;63008;53.112;8.896;2022-09-02T07:53:19;102011.75;;;16.33;64.24
5126;BME280;63008;53.112;8.896;2022-09-02T07:55:20;102007.66;;;16.39;64.46
5126;BME280;63008;53.112;8.896;2022-09-02T07:57:21;102014.13;;;16.43;64.06
5126;BME280;63008;53.112;8.896;2022-09-02T07:59:22;102010.00;;;16.49;64.05
5126;BME280;63008;53.112;8.896;2022-09-02T08:01:24;102000.78;;;16.57;63.70
5126;BME280;63008;53.112;8.896;2022-09-02T08:03:26;101994.09;;;16.69;63.41
5126;BME280;63008;53.112;8.896;2022-09-02T08:05:27;101995.97;;;16.89;63.48
5126;BME280;63008;53.112;8.896;2022-09-02T08:07:28;102006.94;;;16.98;62.79
5126;BME280;63008;53.112;8.896;2022-09-02T08:09:29;102005.69;;;16.95;62.57
5126;BME280;63008;53.112;8.896;2022-09-02T08:11:30;102003.50;;;17.01;63.01
5126;BME280;63008;53.112;8.896;2022-09-02T08:13:32;102005.22;;;17.17;63.28
5126;BME280;63008;53.112;8.896;2022-09-02T08:15:34;102012.28;;;17.27;62.36
5126;BME280;63008;53.112;8.896;2022-09-02T08:17:36;102000.59;;;17.33;61.78
5126;BME280;63008;53.112;8.896;2022-09-02T08:19:39;102010.91;;;17.45;61.50
5126;BME280;63008;53.112;8.896;2022-09-02T08:21:40;102006.38;;;17.52;62.32
5126;BME280;63008;53.112;8.896;2022-09-02T08:23:40;102004.03;;;17.66;60.82
5126;BME280;63008;53.112;8.896;2022-09-02T08:25:41;102003.47;;;17.73;60.76
5126;BME280;63008;53.112;8.896;2022-09-02T08:27:42;102008.16;;;17.84;60.81
5126;BME280;63008;53.112;8.896;2022-09-02T08:29:43;102004.25;;;18.13;60.47
5126;BME280;63008;53.112;8.896;2022-09-02T08:31:44;102013.66;;;18.36;60.05
5126;BME280;63008;53.112;8.896;2022-09-02T08:33:44;102006.22;;;18.40;59.05
5126;BME280;63008;53.112;8.896;2022-09-02T08:35:45;102004.53;;;18.50;58.52
5126;BME280;63008;53.112;8.896;2022-09-02T08:37:45;102008.44;;;18.61;58.51
5126;BME280;63008;53.112;8.896;2022-09-02T08:39:48;102000.97;;;18.81;60.57
5126;BME280;63008;53.112;8.896;2022-09-02T08:42:07;102006.66;;;18.84;57.45
5126;BME280;63008;53.112;8.896;2022-09-02T08:44:21;101999.25;;;19.07;57.75
5126;BME280;63008;53.112;8.896;2022-09-02T08:46:24;102001.66;;;19.21;56.77
5126;BME280;63008;53.112;8.896;2022-09-02T08:48:44;101993.06;;;19.14;57.18
5126;BME280;63008;53.112;8.896;2022-09-02T08:50:48;101986.94;;;19.39;56.13
5126;BME280;63008;53.112;8.896;2022-09-02T08:54:54;101990.75;;;19.85;55.46
5126;BME280;63008;53.112;8.896;2022-09-02T08:56:55;101999.41;;;19.99;55.98
5126;BME280;63008;53.112;8.896;2022-09-02T08:58:57;101986.16;;;20.11;54.79
5126;BME280;63008;53.112;8.896;2022-09-02T09:06:12;101985.44;;;20.55;54.37
5126;BME280;63008;53.112;8.896;2022-09-02T09:10:31;101983.84;;;20.77;51.66
5126;BME280;63008;53.112;8.896;2022-09-02T09:19:31;101970.56;;;22.33;49.01
5126;BME280;63008;53.112;8.896;2022-09-02T09:21:35;101977.03;;;22.77;47.54
5126;BME280;63008;53.112;8.896;2022-09-02T09:23:39;101966.72;;;22.88;46.94
5126;BME280;63008;53.112;8.896;2022-09-02T09:25:40;101962.09;;;23.09;47.73
5126;BME280;63008;53.112;8.896;2022-09-02T09:27:43;101961.53;;;23.37;46.69
5126;BME280;63008;53.112;8.896;2022-09-02T09:29:47;101953.84;;;23.23;46.44
5126;BME280;63008;53.112;8.896;2022-09-02T09:31:54;101950.16;;;22.65;47.20
5126;BME280;63008;53.112;8.896;2022-09-02T09:34:14;101950.66;;;22.78;47.67
5126;BME280;63008;53.112;8.896;2022-09-02T09:36:14;101947.44;;;23.26;45.27
5126;BME280;63008;53.112;8.896;2022-09-02T09:38:30;101944.97;;;23.82;44.48
5126;BME280;63008;53.112;8.896;2022-09-02T09:40:31;101937.78;;;23.85;44.39
5126;BME280;63008;53.112;8.896;2022-09-02T09:42:35;101938.28;;;23.33;45.01
5126;BME280;63008;53.112;8.896;2022-09-02T09:44:45;101936.25;;;23.98;45.44
5126;BME280;63008;53.112;8.896;2022-09-02T09:46:59;101937.00;;;23.95;44.39
5126;BME280;63008;53.112;8.896;2022-09-02T09:49:01;101934.28;;;24.12;42.61
5126;BME280;63008;53.112;8.896;2022-09-02T09:55:20;101927.97;;;24.57;42.96
5126;BME280;63008;53.112;8.896;2022-09-02T09:57:22;101924.72;;;24.48;42.39
5126;BME280;63008;53.112;8.896;2022-09-02T09:59:36;101921.97;;;24.86;42.59
5126;BME280;63008;53.112;8.896;2022-09-02T10:01:49;101930.38;;;24.69;41.56
5126;BME280;63008;53.112;8.896;2022-09-02T10:03:54;101919.00;;;23.96;42.23
5126;BME280;63008;53.112;8.896;2022-09-02T10:05:57;101914.81;;;23.58;43.71
5126;BME280;63008;53.112;8.896;2022-09-02T10:08:01;101913.94;;;24.57;42.09
5126;BME280;63008;53.112;8.896;2022-09-02T10:10:30;101912.69;;;24.96;41.74
5126;BME280;63008;53.112;8.896;2022-09-02T10:12:31;101911.44;;;25.46;40.16
5126;BME280;63008;53.112;8.896;2022-09-02T10:14:44;101911.91;;;25.03;40.71
5126;BME280;63008;53.112;8.896;2022-09-02T10:16:53;101907.91;;;24.79;40.47
5126;BME280;63008;53.112;8.896;2022-09-02T10:26:15;101883.44;;;24.69;41.24
5126;BME280;63008;53.112;8.896;2022-09-02T10:34:13;101883.13;;;25.88;38.56
5126;BME280;63008;53.112;8.896;2022-09-02T10:38:42;101866.00;;;25.58;38.97
5126;BME280;63008;53.112;8.896;2022-09-02T10:40:45;101874.56;;;25.02;38.88
5126;BME280;63008;53.112;8.896;2022-09-02T10:43:06;101873.00;;;24.73;37.91
5126;BME280;63008;53.112;8.896;2022-09-02T10:45:22;101872.34;;;25.76;37.05
5126;BME280;63008;53.112;8.896;2022-09-02T10:54:31;101869.81;;;24.75;36.69
5126;BME280;63008;53.112;8.896;2022-09-02T10:56:24;101864.53;;;24.35;37.41
5126;BME280;63008;53.112;8.896;2022-09-02T10:58:38;101866.53;;;24.41;37.38
5126;BME280;63008;53.112;8.896;2022-09-02T11:00:43;101857.75;;;23.23;39.30
5126;BME280;63008;53.112;8.896;2022-09-02T11:05:15;101853.66;;;23.10;39.50
5126;BME280;63008;53.112;8.896;2022-09-02T11:07:26;101855.00;;;23.30;39.61
5126;BME280;63008;53.112;8.896;2022-09-02T11:09:34;101851.22;;;23.83;39.76
5126;BME280;63008;53.112;8.896;2022-09-02T11:11:39;101842.09;;;24.70;37.54
5126;BME280;63008;53.112;8.896;2022-09-02T11:16:15;101841.06;;;25.57;38.22
5126;BME280;63008;53.112;8.896;2022-09-02T11:18:25;101830.78;;;26.05;35.84
5126;BME280;63008;53.112;8.896;2022-09-02T11:20:46;101837.03;;;26.29;35.09
5126;BME280;63008;53.112;8.896;2022-09-02T11:25:13;101834.78;;;27.35;34.62
5126;BME280;63008;53.112;8.896;2022-09-02T11:29:34;101831.19;;;28.21;32.74
5126;BME280;63008;53.112;8.896;2022-09-02T11:31:45;101822.84;;;27.88;34.00
5126;BME280;63008;53.112;8.896;2022-09-02T11:33:54;101818.44;;;27.53;33.38
5126;BME280;63008;53.112;8.896;2022-09-02T11:35:57;101827.34;;;27.82;33.13
5126;BME280;63008;53.112;8.896;2022-09-02T11:38:02;101823.97;;;28.43;31.55
5126;BME280;63008;53.112;8.896;2022-09-02T11:40:06;101821.28;;;28.10;31.54
5126;BME280;63008;53.112;8.896;2022-09-02T11:42:17;101813.94;;;27.29;32.04
5126;BME280;63008;53.112;8.896;2022-09-02T11:49:45;101801.03;;;28.15;29.55